createdAt,value
2018-10-12T04:00:59.356Z,1010.71
2018-10-12T04:01:59.238Z,1010.71
2018-10-12T04:03:51.903Z,1010.78
2018-10-12T04:04:51.799Z,1010.73
2018-10-12T04:06:44.495Z,1010.76
2018-10-12T04:07:44.371Z,1010.75
2018-10-12T04:09:37.030Z,1010.83
2018-10-12T04:10:36.934Z,1010.81
2018-10-12T04:12:29.672Z,1010.86
2018-10-12T04:13:29.501Z,1010.89
2018-10-12T04:15:22.228Z,1010.96
2018-10-12T04:16:22.072Z,1010.98
2018-10-12T04:18:14.773Z,1010.99
2018-10-12T04:19:14.685Z,1010.96
2018-10-12T04:21:07.315Z,1011.02
2018-10-12T04:22:07.212Z,1011.07
2018-10-12T04:23:59.895Z,1011.13
2018-10-12T04:24:59.773Z,1011.12
2018-10-12T04:26:52.645Z,1011.20
2018-10-12T04:27:52.552Z,1011.27
2018-10-12T04:29:45.307Z,1011.26
2018-10-12T04:30:45.153Z,1011.29
2018-10-12T04:32:37.983Z,1011.30
2018-10-12T04:33:37.713Z,1011.32
2018-10-12T04:35:30.418Z,1011.27
2018-10-12T04:36:30.286Z,1011.28
2018-10-12T04:38:22.978Z,1011.18
2018-10-12T04:39:23.308Z,1011.20
2018-10-12T04:41:16.259Z,1011.09
2018-10-12T04:42:15.783Z,1011.11
2018-10-12T04:44:08.175Z,1011.15
2018-10-12T04:45:08.054Z,1011.22
2018-10-12T04:47:00.752Z,1011.26
2018-10-12T04:48:00.625Z,1011.29
2018-10-12T04:49:53.291Z,1011.40
2018-10-12T04:50:53.181Z,1011.44
2018-10-12T04:52:45.888Z,1011.33
2018-10-12T04:53:45.820Z,1011.33
2018-10-12T04:55:38.458Z,1011.32
2018-10-12T04:56:38.340Z,1011.39
2018-10-12T04:58:31.036Z,1011.47
2018-10-12T04:59:31.142Z,1011.49
2018-10-12T05:01:23.579Z,1011.45
2018-10-12T05:02:23.468Z,1011.39
2018-10-12T05:04:16.591Z,1011.47
2018-10-12T05:05:16.043Z,1011.47
2018-10-12T05:07:08.759Z,1011.47
2018-10-12T05:08:08.601Z,1011.52
2018-10-12T05:10:01.303Z,1011.60
2018-10-12T05:11:01.179Z,1011.58
2018-10-12T05:12:53.845Z,1011.55
2018-10-12T05:13:53.747Z,1011.54
2018-10-12T05:15:46.435Z,1011.51
2018-10-12T05:16:46.299Z,1011.53
2018-10-12T05:18:40.029Z,1011.50
2018-10-12T05:19:39.911Z,1011.48
2018-10-12T05:21:32.745Z,1011.48
2018-10-12T05:22:32.603Z,1011.50
2018-10-12T05:24:25.446Z,1011.53
2018-10-12T05:25:25.165Z,1011.53
2018-10-12T05:27:18.205Z,1011.60
2018-10-12T05:28:18.084Z,1011.64
2018-10-12T05:30:10.921Z,1011.72
2018-10-12T05:31:10.643Z,1011.77
2018-10-12T05:33:04.759Z,1011.79
2018-10-12T05:34:03.203Z,1011.72
2018-10-12T05:35:55.879Z,1011.84
2018-10-12T05:36:55.779Z,1011.82
2018-10-12T05:38:48.862Z,1011.87
2018-10-12T05:39:48.525Z,1011.92
2018-10-12T05:41:41.573Z,1011.97
2018-10-12T05:42:41.039Z,1012.00
2018-10-12T05:44:33.588Z,1011.98
2018-10-12T05:45:33.484Z,1012.00
2018-10-12T05:47:26.142Z,1012.01
2018-10-12T05:48:26.043Z,1012.08
2018-10-12T05:50:18.721Z,1012.10
2018-10-12T05:51:18.593Z,1012.15
2018-10-12T05:53:11.755Z,1012.15
2018-10-12T05:54:11.656Z,1012.18
2018-10-12T05:56:04.360Z,1012.17
2018-10-12T05:57:04.243Z,1012.19
2018-10-12T05:58:56.928Z,1012.25
2018-10-12T05:59:56.878Z,1012.27
2018-10-12T06:01:49.521Z,1012.27
2018-10-12T06:02:49.397Z,1012.31
2018-10-12T06:04:42.057Z,1012.30
2018-10-12T06:05:41.951Z,1012.32
2018-10-12T06:07:34.665Z,1012.37
2018-10-12T06:08:34.529Z,1012.42
2018-10-12T06:10:27.745Z,1012.46
2018-10-12T06:11:27.773Z,1012.50
2018-10-12T06:13:20.422Z,1012.54
2018-10-12T06:14:20.668Z,1012.55
2018-10-12T06:16:13.239Z,1012.64
2018-10-12T06:17:13.134Z,1012.68
2018-10-12T06:19:05.829Z,1012.71
2018-10-12T06:20:05.726Z,1012.71
2018-10-12T06:21:58.452Z,1012.72
2018-10-12T06:22:58.324Z,1012.77
2018-10-12T06:24:51.012Z,1012.80
2018-10-12T06:25:50.847Z,1012.76
2018-10-12T06:27:43.515Z,1012.86
2018-10-12T06:28:43.412Z,1012.78
2018-10-12T06:30:36.111Z,1012.86
2018-10-12T06:31:35.983Z,1012.89
2018-10-12T06:33:28.664Z,1012.91
2018-10-12T06:34:28.563Z,1012.93
2018-10-12T06:36:21.256Z,1012.99
2018-10-12T06:37:21.134Z,1012.99
2018-10-12T06:39:13.839Z,1013.01
2018-10-12T06:40:13.699Z,1013.05
2018-10-12T06:42:06.397Z,1013.07
2018-10-12T06:43:06.275Z,1013.10
2018-10-12T06:45:00.532Z,1013.18
2018-10-12T06:45:59.244Z,1013.23
2018-10-12T06:47:51.944Z,1013.21
2018-10-12T06:50:44.783Z,1013.18
2018-10-12T06:51:44.667Z,1013.18
2018-10-12T06:53:37.350Z,1013.23
2018-10-12T06:54:38.720Z,1013.25
2018-10-12T06:56:29.912Z,1013.23
2018-10-12T06:57:29.805Z,1013.21
2018-10-12T06:59:22.495Z,1013.25
2018-10-12T07:00:22.370Z,1013.25
2018-10-12T07:02:15.050Z,1013.37
2018-10-12T07:03:14.942Z,1013.37
2018-10-12T07:05:07.635Z,1013.37
2018-10-12T07:06:07.508Z,1013.42
2018-10-12T07:08:00.191Z,1013.43
2018-10-12T07:09:00.091Z,1013.45
2018-10-12T07:10:52.783Z,1013.42
2018-10-12T07:11:52.651Z,1013.44
2018-10-12T07:13:45.570Z,1013.50
2018-10-12T07:14:45.220Z,1013.47
2018-10-12T07:16:37.935Z,1013.50
2018-10-12T07:17:37.793Z,1013.49
2018-10-12T07:19:30.500Z,1013.55
2018-10-12T07:20:30.372Z,1013.59
2018-10-12T07:22:23.062Z,1013.63
2018-10-12T07:23:22.940Z,1013.63
2018-10-12T07:25:15.604Z,1013.60
2018-10-12T07:26:15.500Z,1013.66
2018-10-12T07:28:08.200Z,1013.68
2018-10-12T07:29:08.076Z,1013.66
2018-10-12T07:31:00.768Z,1013.65
2018-10-12T07:32:00.654Z,1013.69
2018-10-12T07:33:53.337Z,1013.72
2018-10-12T07:34:53.213Z,1013.76
2018-10-12T07:36:46.397Z,1013.73
2018-10-12T07:37:46.337Z,1013.72
2018-10-12T07:39:38.973Z,1013.76
2018-10-12T07:40:38.849Z,1013.80
2018-10-12T07:42:31.570Z,1013.85
2018-10-12T07:43:31.472Z,1013.86
2018-10-12T07:45:24.132Z,1013.89
2018-10-12T07:46:24.000Z,1013.88
2018-10-12T07:48:16.704Z,1013.93
2018-10-12T07:49:16.558Z,1013.92
2018-10-12T07:51:09.287Z,1013.93
2018-10-12T07:52:09.149Z,1013.90
2018-10-12T07:54:01.866Z,1013.91
2018-10-12T07:55:01.722Z,1013.92
2018-10-12T07:56:54.920Z,1013.88
2018-10-12T07:57:54.794Z,1013.91
2018-10-12T07:59:47.476Z,1013.97
2018-10-12T08:00:47.421Z,1013.97
2018-10-12T08:02:40.085Z,1013.95
2018-10-12T08:03:39.952Z,1013.98
2018-10-12T08:05:32.637Z,1014.02
2018-10-12T08:06:32.589Z,1014.04
2018-10-12T08:08:25.227Z,1014.02
2018-10-12T08:09:25.104Z,1014.04
2018-10-12T08:11:17.818Z,1014.14
2018-10-12T08:12:17.733Z,1014.12
2018-10-12T08:14:10.444Z,1014.15
2018-10-12T08:15:10.284Z,1014.17
2018-10-12T08:17:02.962Z,1014.24
2018-10-12T08:18:02.857Z,1014.31
2018-10-12T08:19:55.556Z,1014.30
2018-10-12T08:20:55.437Z,1014.30
2018-10-12T08:22:48.118Z,1014.32
2018-10-12T08:23:48.020Z,1014.31
2018-10-12T08:25:40.714Z,1014.35
2018-10-12T08:26:40.579Z,1014.34
2018-10-12T08:28:33.276Z,1014.37
2018-10-12T08:29:33.177Z,1014.37
2018-10-12T08:31:25.923Z,1014.37
2018-10-12T08:32:25.813Z,1014.41
2018-10-12T08:34:18.469Z,1014.39
2018-10-12T08:35:18.318Z,1014.42
2018-10-12T08:37:11.035Z,1014.42
2018-10-12T08:38:10.908Z,1014.47
2018-10-12T08:40:03.591Z,1014.45
2018-10-12T08:41:03.477Z,1014.35
2018-10-12T08:42:56.185Z,1014.39
2018-10-12T08:43:56.064Z,1014.38
2018-10-12T08:45:48.745Z,1014.43
2018-10-12T08:46:48.656Z,1014.44
2018-10-12T08:48:41.349Z,1014.45
2018-10-12T08:49:41.247Z,1014.48
2018-10-12T08:51:33.914Z,1014.52
2018-10-12T08:52:33.819Z,1014.60
2018-10-12T08:54:26.548Z,1014.61
2018-10-12T08:55:26.444Z,1014.56
2018-10-12T08:57:19.074Z,1014.59
2018-10-12T08:58:18.980Z,1014.56
2018-10-12T09:00:11.674Z,1014.61
2018-10-12T09:01:11.558Z,1014.59
2018-10-12T09:03:04.295Z,1014.69
2018-10-12T09:04:04.134Z,1014.67
2018-10-12T09:05:56.838Z,1014.70
2018-10-12T09:06:56.719Z,1014.69
2018-10-12T09:08:49.423Z,1014.71
2018-10-12T09:09:49.342Z,1014.73
2018-10-12T09:11:42.024Z,1014.71
2018-10-12T09:12:41.919Z,1014.75
2018-10-12T09:14:34.588Z,1014.79
2018-10-12T09:15:34.475Z,1014.74
2018-10-12T09:17:27.200Z,1014.70
2018-10-12T09:18:27.061Z,1014.69
2018-10-12T09:20:19.814Z,1014.69
2018-10-12T09:21:19.638Z,1014.68
2018-10-12T09:23:12.341Z,1014.76
2018-10-12T09:24:12.221Z,1014.83
2018-10-12T09:26:04.911Z,1014.71
2018-10-12T09:27:04.837Z,1014.78
2018-10-12T09:28:57.551Z,1014.78
2018-10-12T09:29:57.420Z,1014.85
2018-10-12T09:31:50.102Z,1014.87
2018-10-12T09:32:50.007Z,1014.77
2018-10-12T09:34:42.725Z,1014.80
2018-10-12T09:35:42.592Z,1014.77
2018-10-12T09:37:35.268Z,1014.79
2018-10-12T09:38:35.161Z,1014.82
2018-10-12T09:40:27.874Z,1014.79
2018-10-12T09:41:27.792Z,1014.77
2018-10-12T09:43:20.498Z,1014.86
2018-10-12T09:44:20.330Z,1014.85
2018-10-12T09:46:13.200Z,1014.90
2018-10-12T09:47:12.910Z,1014.91
2018-10-12T09:49:05.591Z,1014.93
2018-10-12T09:50:05.490Z,1014.90
2018-10-12T09:51:58.195Z,1014.89
2018-10-12T09:52:58.067Z,1014.90
2018-10-12T09:54:50.761Z,1014.90
2018-10-12T09:55:50.665Z,1014.86
2018-10-12T09:57:43.353Z,1014.85
2018-10-12T09:58:43.242Z,1014.82
2018-10-12T10:00:35.921Z,1014.87
2018-10-12T10:01:35.824Z,1014.84
2018-10-12T10:03:28.544Z,1014.82
2018-10-12T10:04:28.415Z,1014.79
2018-10-12T10:06:21.098Z,1014.72
2018-10-12T10:07:21.048Z,1014.77
2018-10-12T10:09:13.700Z,1014.70
2018-10-12T10:10:13.574Z,1014.68
2018-10-12T10:12:06.262Z,1014.73
2018-10-12T10:13:06.158Z,1014.73
2018-10-12T10:14:58.864Z,1014.71
2018-10-12T10:15:58.736Z,1014.72
2018-10-12T10:17:51.422Z,1014.71
2018-10-12T10:18:51.317Z,1014.70
2018-10-12T10:20:44.020Z,1014.65
2018-10-12T10:21:43.941Z,1014.64
2018-10-12T10:23:36.579Z,1014.74
2018-10-12T10:24:36.483Z,1014.71
2018-10-12T10:26:29.200Z,1014.69
2018-10-12T10:27:29.085Z,1014.76
2018-10-12T10:29:21.832Z,1014.73
2018-10-12T10:30:21.658Z,1014.73
2018-10-12T10:32:14.410Z,1014.69
2018-10-12T10:33:14.346Z,1014.67
2018-10-12T10:35:06.926Z,1014.69
2018-10-12T10:36:06.830Z,1014.69
2018-10-12T10:37:59.515Z,1014.67
2018-10-12T10:38:59.428Z,1014.67
2018-10-12T10:40:52.090Z,1014.60
2018-10-12T10:41:51.998Z,1014.61
2018-10-12T10:43:44.700Z,1014.55
2018-10-12T10:44:44.601Z,1014.60
2018-10-12T10:46:37.274Z,1014.54
2018-10-12T10:47:37.161Z,1014.47
2018-10-12T10:49:29.888Z,1014.43
2018-10-12T10:50:29.759Z,1014.43
2018-10-12T10:52:22.443Z,1014.41
2018-10-12T10:53:22.347Z,1014.43
2018-10-12T10:55:15.065Z,1014.36
2018-10-12T10:56:14.951Z,1014.37
2018-10-12T10:58:07.630Z,1014.39
2018-10-12T10:59:07.524Z,1014.47
2018-10-12T11:01:00.378Z,1014.48
2018-10-12T11:02:00.123Z,1014.40
2018-10-12T11:03:52.817Z,1014.39
2018-10-12T11:04:52.721Z,1014.41
2018-10-12T11:06:45.425Z,1014.40
2018-10-12T11:07:45.304Z,1014.34
2018-10-12T11:09:37.986Z,1014.36
2018-10-12T11:10:37.892Z,1014.39
2018-10-12T11:12:30.610Z,1014.37
2018-10-12T11:13:30.472Z,1014.44
2018-10-12T11:15:23.146Z,1014.34
2018-10-12T11:16:23.055Z,1014.36
2018-10-12T11:18:15.762Z,1014.46
2018-10-12T11:19:15.634Z,1014.46
2018-10-12T11:21:08.323Z,1014.45
2018-10-12T11:22:08.224Z,1014.38
2018-10-12T11:24:00.944Z,1014.36
2018-10-12T11:25:00.817Z,1014.28
2018-10-12T11:26:53.516Z,1014.27
2018-10-12T11:27:53.396Z,1014.29
2018-10-12T11:29:46.109Z,1014.30
2018-10-12T11:30:45.989Z,1014.28
2018-10-12T11:32:38.686Z,1014.28
2018-10-12T11:33:38.574Z,1014.31
2018-10-12T11:35:31.298Z,1014.42
2018-10-12T11:36:31.174Z,1014.34
2018-10-12T11:38:23.882Z,1014.32
2018-10-12T11:39:23.763Z,1014.37
2018-10-12T11:41:16.472Z,1014.32
2018-10-12T11:42:16.361Z,1014.33
2018-10-12T11:44:09.047Z,1014.29
2018-10-12T11:45:09.007Z,1014.35
2018-10-12T11:47:01.666Z,1014.36
2018-10-12T11:48:01.525Z,1014.31
2018-10-12T11:49:54.289Z,1014.31
2018-10-12T11:50:54.102Z,1014.30
2018-10-12T11:52:46.810Z,1014.27
2018-10-12T11:53:46.695Z,1014.24
2018-10-12T11:55:39.376Z,1014.30
2018-10-12T11:56:39.276Z,1014.30
2018-10-12T11:58:31.992Z,1014.27
2018-10-12T11:59:31.875Z,1014.29
2018-10-12T12:01:24.566Z,1014.26
2018-10-12T12:02:24.470Z,1014.31
2018-10-12T12:04:17.172Z,1014.30
2018-10-12T12:05:17.047Z,1014.30
2018-10-12T12:07:09.750Z,1014.27
2018-10-12T12:08:09.642Z,1014.28
2018-10-12T12:10:02.346Z,1014.30
2018-10-12T12:11:02.236Z,1014.26
2018-10-12T12:12:54.919Z,1014.32
2018-10-12T12:13:54.927Z,1014.30
2018-10-12T12:15:47.520Z,1014.29
2018-10-12T12:16:47.401Z,1014.30
2018-10-12T12:18:40.083Z,1014.30
2018-10-12T12:19:39.979Z,1014.25
2018-10-12T12:21:32.694Z,1014.27
2018-10-12T12:22:32.569Z,1014.24
2018-10-12T12:24:25.254Z,1014.26
2018-10-12T12:25:25.157Z,1014.24
2018-10-12T12:27:17.876Z,1014.28
2018-10-12T12:28:17.739Z,1014.32
2018-10-12T12:30:10.435Z,1014.38
2018-10-12T12:31:10.338Z,1014.35
2018-10-12T12:33:03.062Z,1014.33
2018-10-12T12:34:02.928Z,1014.32
2018-10-12T12:35:56.126Z,1014.27
2018-10-12T12:36:55.521Z,1014.26
2018-10-12T12:38:48.230Z,1014.25
2018-10-12T12:39:48.109Z,1014.26
2018-10-12T12:41:40.829Z,1014.23
2018-10-12T12:42:40.722Z,1014.24
2018-10-12T12:44:33.437Z,1014.27
2018-10-12T12:45:33.334Z,1014.26
2018-10-12T12:47:26.031Z,1014.26
2018-10-12T12:48:26.236Z,1014.26
2018-10-12T12:50:18.616Z,1014.29
2018-10-12T12:51:18.497Z,1014.32
2018-10-12T12:53:11.185Z,1014.26
2018-10-12T12:54:11.091Z,1014.27
2018-10-12T12:56:03.797Z,1014.25
2018-10-12T12:57:03.683Z,1014.30
2018-10-12T12:58:56.430Z,1014.29
2018-10-12T12:59:56.269Z,1014.28
2018-10-12T13:01:48.979Z,1014.27
2018-10-12T13:02:48.859Z,1014.29
2018-10-12T13:04:41.545Z,1014.28
2018-10-12T13:05:41.449Z,1014.22
2018-10-12T13:07:34.157Z,1014.26
2018-10-12T13:08:34.034Z,1014.30
2018-10-12T13:10:26.718Z,1014.27
2018-10-12T13:11:26.615Z,1014.29
2018-10-12T13:13:19.334Z,1014.24
2018-10-12T13:14:19.210Z,1014.30
2018-10-12T13:16:11.884Z,1014.29
2018-10-12T13:17:11.785Z,1014.31
2018-10-12T13:19:04.486Z,1014.25
2018-10-12T13:20:04.368Z,1014.28
2018-10-12T13:21:57.056Z,1014.27
2018-10-12T13:22:56.960Z,1014.28
2018-10-12T13:24:49.666Z,1014.28
2018-10-12T13:25:49.634Z,1014.30
2018-10-12T13:27:42.235Z,1014.30
2018-10-12T13:28:42.128Z,1014.34
2018-10-12T13:30:34.846Z,1014.33
2018-10-12T13:31:34.723Z,1014.35
2018-10-12T13:33:27.423Z,1014.33
2018-10-12T13:34:27.320Z,1014.37
2018-10-12T13:36:20.025Z,1014.31
2018-10-12T13:37:19.903Z,1014.32
2018-10-12T13:39:12.590Z,1014.34
2018-10-12T13:40:12.490Z,1014.31
2018-10-12T13:42:05.210Z,1014.35
2018-10-12T13:43:05.082Z,1014.34
2018-10-12T13:44:57.770Z,1014.33
2018-10-12T13:45:57.667Z,1014.35
2018-10-12T13:47:50.388Z,1014.38
2018-10-12T13:48:50.262Z,1014.36
2018-10-12T13:50:42.949Z,1014.38
2018-10-12T13:51:42.861Z,1014.37
2018-10-12T13:53:35.569Z,1014.37
2018-10-12T13:54:35.447Z,1014.39
2018-10-12T13:56:28.135Z,1014.43
2018-10-12T13:57:28.038Z,1014.36
2018-10-12T13:59:20.760Z,1014.36
2018-10-12T14:00:20.696Z,1014.36
2018-10-12T14:02:13.327Z,1014.35
2018-10-12T14:03:13.230Z,1014.36
2018-10-12T14:05:05.951Z,1014.41
2018-10-12T14:06:05.818Z,1014.45
2018-10-12T14:07:58.529Z,1014.41
2018-10-12T14:08:58.420Z,1014.40
2018-10-12T14:10:51.137Z,1014.41
2018-10-12T14:11:51.012Z,1014.37
2018-10-12T14:13:43.704Z,1014.33
2018-10-12T14:14:43.612Z,1014.34
2018-10-12T14:16:36.309Z,1014.33
2018-10-12T14:17:36.197Z,1014.31
2018-10-12T14:19:28.995Z,1014.32
2018-10-12T14:20:28.781Z,1014.31
2018-10-12T14:22:21.488Z,1014.28
2018-10-12T14:23:21.365Z,1014.30
2018-10-12T14:25:14.131Z,1014.31
2018-10-12T14:26:13.953Z,1014.30
2018-10-12T14:28:06.668Z,1014.33
2018-10-12T14:29:06.544Z,1014.31
2018-10-12T14:30:59.236Z,1014.27
2018-10-12T14:31:59.139Z,1014.26
2018-10-12T14:33:51.845Z,1014.27
2018-10-12T14:34:51.728Z,1014.28
2018-10-12T14:36:44.417Z,1014.18
2018-10-12T14:37:44.368Z,1014.21
2018-10-12T14:39:37.031Z,1014.21
2018-10-12T14:40:36.906Z,1014.17
2018-10-12T14:42:29.592Z,1014.15
2018-10-12T14:43:29.487Z,1014.10
2018-10-12T14:45:22.399Z,1014.16
2018-10-12T14:46:22.077Z,1014.15
2018-10-12T14:48:14.768Z,1014.18
2018-10-12T14:49:14.670Z,1014.18
2018-10-12T14:51:07.373Z,1014.16
2018-10-12T14:52:07.261Z,1014.15
2018-10-12T14:54:00.056Z,1014.13
2018-10-12T14:54:59.941Z,1014.15
2018-10-12T14:56:52.651Z,1014.13
2018-10-12T14:57:52.534Z,1014.15
2018-10-12T14:59:45.233Z,1014.12
2018-10-12T15:00:45.124Z,1014.10
2018-10-12T15:02:37.831Z,1014.07
2018-10-12T15:03:37.952Z,1014.06
2018-10-12T15:05:30.459Z,1014.05
2018-10-12T15:06:30.301Z,1014.07
2018-10-12T15:08:23.153Z,1014.09
2018-10-12T15:09:22.891Z,1014.09
2018-10-12T15:11:15.581Z,1014.06
2018-10-12T15:12:15.479Z,1014.03
2018-10-12T15:14:08.210Z,1014.06
2018-10-12T15:15:08.067Z,1014.03
2018-10-12T15:17:00.747Z,1014.02
2018-10-12T15:18:00.644Z,1014.01
2018-10-12T15:19:53.366Z,1014.03
2018-10-12T15:20:53.279Z,1014.01
2018-10-12T15:22:45.933Z,1014.06
2018-10-12T15:23:45.834Z,1014.01
2018-10-12T15:25:38.572Z,1014.04
2018-10-12T15:26:38.420Z,1014.08
2018-10-12T15:28:31.120Z,1014.07
2018-10-12T15:29:31.016Z,1014.06
2018-10-12T15:31:23.718Z,1014.01
2018-10-12T15:32:23.603Z,1013.97
2018-10-12T15:34:16.299Z,1014.01
2018-10-12T15:35:16.201Z,1013.99
2018-10-12T15:37:08.979Z,1014.02
2018-10-12T15:38:08.804Z,1014.00
2018-10-12T15:40:01.504Z,1014.00
2018-10-12T15:41:01.403Z,1014.04
2018-10-12T15:42:54.193Z,1014.03
2018-10-12T15:43:53.980Z,1014.02
2018-10-12T15:45:46.670Z,1014.02
2018-10-12T15:46:46.573Z,1013.98
2018-10-12T15:48:39.285Z,1013.95
2018-10-12T15:49:39.164Z,1013.94
2018-10-12T15:51:31.914Z,1013.93
2018-10-12T15:52:31.759Z,1013.94
2018-10-12T15:54:24.464Z,1014.02
2018-10-12T15:55:24.333Z,1014.06
2018-10-12T15:57:17.024Z,1014.09
2018-10-12T15:58:16.915Z,1014.08
2018-10-12T16:00:09.647Z,1014.10
2018-10-12T16:01:09.509Z,1014.10
2018-10-12T16:03:02.306Z,1014.05
2018-10-12T16:04:02.189Z,1014.05
2018-10-12T16:05:54.889Z,1014.09
2018-10-12T16:06:54.767Z,1014.11
2018-10-12T16:08:47.462Z,1014.06
2018-10-12T16:09:47.367Z,1014.06
2018-10-12T16:11:40.070Z,1014.05
2018-10-12T16:12:39.946Z,1013.98
2018-10-12T16:14:33.257Z,1014.06
2018-10-12T16:15:33.056Z,1014.04
2018-10-12T16:17:25.737Z,1014.02
2018-10-12T16:18:25.618Z,1014.05
2018-10-12T16:20:18.297Z,1014.03
2018-10-12T16:21:18.200Z,1014.05
2018-10-12T16:23:10.904Z,1014.04
2018-10-12T16:24:10.787Z,1014.05
2018-10-12T16:26:03.491Z,1014.06
2018-10-12T16:27:03.434Z,1014.04
2018-10-12T16:28:56.133Z,1014.09
2018-10-12T16:29:55.966Z,1014.11
2018-10-12T16:31:48.670Z,1014.13
2018-10-12T16:32:48.546Z,1014.14
2018-10-12T16:34:41.256Z,1014.18
2018-10-12T16:35:41.193Z,1014.16
2018-10-12T16:37:33.812Z,1014.25
2018-10-12T16:38:33.712Z,1014.22
2018-10-12T16:40:26.417Z,1014.25
2018-10-12T16:41:26.295Z,1014.31
2018-10-12T16:43:18.991Z,1014.33
2018-10-12T16:44:18.894Z,1014.33
2018-10-12T16:46:11.594Z,1014.39
2018-10-12T16:47:11.461Z,1014.36
2018-10-12T16:49:04.150Z,1014.35
2018-10-12T16:50:04.041Z,1014.38
2018-10-12T16:51:56.762Z,1014.36
2018-10-12T16:52:56.633Z,1014.39
2018-10-12T16:54:49.320Z,1014.43
2018-10-12T16:55:49.218Z,1014.41
2018-10-12T16:57:41.976Z,1014.42
2018-10-12T16:58:41.821Z,1014.43
2018-10-12T17:00:34.471Z,1014.43
2018-10-12T17:01:34.375Z,1014.45
2018-10-12T17:03:27.094Z,1014.46
2018-10-12T17:04:27.012Z,1014.47
2018-10-12T17:06:19.723Z,1014.43
2018-10-12T17:07:19.669Z,1014.45
2018-10-12T17:09:12.318Z,1014.42
2018-10-12T17:10:12.196Z,1014.46
2018-10-12T17:12:04.884Z,1014.48
2018-10-12T17:13:04.777Z,1014.48
2018-10-12T17:14:57.479Z,1014.49
2018-10-12T17:15:57.372Z,1014.50
2018-10-12T17:17:50.049Z,1014.54
2018-10-12T17:18:49.942Z,1014.50
2018-10-12T17:20:42.654Z,1014.54
2018-10-12T17:21:42.542Z,1014.55
2018-10-12T17:23:35.215Z,1014.53
2018-10-12T17:24:35.116Z,1014.54
2018-10-12T17:26:27.804Z,1014.57
2018-10-12T17:27:27.679Z,1014.55
2018-10-12T17:29:20.391Z,1014.55
2018-10-12T17:30:20.322Z,1014.52
2018-10-12T17:32:12.977Z,1014.52
2018-10-12T17:33:12.860Z,1014.54
2018-10-12T17:35:05.541Z,1014.55
2018-10-12T17:36:05.435Z,1014.57
2018-10-12T17:37:58.138Z,1014.55
2018-10-12T17:38:58.021Z,1014.61
2018-10-12T17:40:50.701Z,1014.57
2018-10-12T17:41:50.600Z,1014.64
2018-10-12T17:43:43.299Z,1014.65
2018-10-12T17:44:43.177Z,1014.58
2018-10-12T17:46:35.915Z,1014.65
2018-10-12T17:47:35.800Z,1014.66
2018-10-12T17:49:28.554Z,1014.67
2018-10-12T17:50:28.337Z,1014.63
2018-10-12T17:52:21.038Z,1014.66
2018-10-12T17:53:20.935Z,1014.66
2018-10-12T17:55:13.673Z,1014.63
2018-10-12T17:56:13.521Z,1014.68
2018-10-12T17:58:06.199Z,1014.70
2018-10-12T17:59:06.091Z,1014.71
2018-10-12T18:00:58.844Z,1014.72
2018-10-12T18:01:58.727Z,1014.74
2018-10-12T18:03:51.400Z,1014.72
2018-10-12T18:04:51.317Z,1014.74
2018-10-12T18:06:44.009Z,1014.74
2018-10-12T18:07:43.952Z,1014.72
2018-10-12T18:09:36.573Z,1014.71
2018-10-12T18:10:36.481Z,1014.75
2018-10-12T18:12:29.220Z,1014.76
2018-10-12T18:13:29.059Z,1014.77
2018-10-12T18:15:21.749Z,1014.73
2018-10-12T18:16:21.695Z,1014.73
2018-10-12T18:18:14.351Z,1014.78
2018-10-12T18:19:14.232Z,1014.74
2018-10-12T18:21:06.931Z,1014.71
2018-10-12T18:22:06.828Z,1014.68
2018-10-12T18:23:59.529Z,1014.66
2018-10-12T18:24:59.403Z,1014.67
2018-10-12T18:26:52.091Z,1014.69
2018-10-12T18:27:51.986Z,1014.67
2018-10-12T18:29:44.700Z,1014.70
2018-10-12T18:30:44.577Z,1014.70
2018-10-12T18:32:37.253Z,1014.71
2018-10-12T18:33:37.153Z,1014.76
2018-10-12T18:35:29.858Z,1014.78
2018-10-12T18:36:29.816Z,1014.81
2018-10-12T18:38:22.416Z,1014.74
2018-10-12T18:39:22.310Z,1014.72
2018-10-12T18:41:15.024Z,1014.79
2018-10-12T18:42:14.894Z,1014.74
2018-10-12T18:44:07.579Z,1014.78
2018-10-12T18:45:07.482Z,1014.77
2018-10-12T18:47:00.186Z,1014.74
2018-10-12T18:48:00.197Z,1014.80
2018-10-12T18:49:52.730Z,1014.80
2018-10-12T18:50:52.697Z,1014.85
2018-10-12T18:52:45.335Z,1014.85
2018-10-12T18:53:45.211Z,1014.89
2018-10-12T18:55:37.893Z,1014.88
2018-10-12T18:56:37.791Z,1014.91
2018-10-12T18:58:30.492Z,1014.92
2018-10-12T18:59:30.426Z,1014.91
2018-10-12T19:01:23.067Z,1014.91
2018-10-12T19:02:22.959Z,1014.91
2018-10-12T19:04:15.678Z,1014.87
2018-10-12T19:05:15.536Z,1014.90
2018-10-12T19:07:08.221Z,1014.87
2018-10-12T19:08:08.124Z,1014.92
2018-10-12T19:10:00.835Z,1014.91
2018-10-12T19:11:00.707Z,1014.93
2018-10-12T19:12:53.383Z,1014.95
2018-10-12T19:13:53.310Z,1014.94
2018-10-12T19:15:45.968Z,1014.94
2018-10-12T19:16:45.860Z,1014.97
2018-10-12T19:18:38.540Z,1015.00
2018-10-12T19:19:38.446Z,1014.99
2018-10-12T19:21:31.143Z,1015.01
2018-10-12T19:22:31.019Z,1015.02
2018-10-12T19:24:23.742Z,1015.03
2018-10-12T19:25:23.613Z,1015.06
2018-10-12T19:27:16.296Z,1015.07
2018-10-12T19:28:16.178Z,1015.06
2018-10-12T19:30:08.863Z,1015.10
2018-10-12T19:31:08.827Z,1015.16
2018-10-12T19:33:01.483Z,1015.16
2018-10-12T19:34:01.330Z,1015.17
2018-10-12T19:35:54.027Z,1015.21
2018-10-12T19:36:53.920Z,1015.22
2018-10-12T19:38:46.633Z,1015.24
2018-10-12T19:39:46.514Z,1015.24
2018-10-12T19:41:39.218Z,1015.27
2018-10-12T19:42:39.092Z,1015.27
2018-10-12T19:44:31.767Z,1015.30
2018-10-12T19:45:31.671Z,1015.29
2018-10-12T19:47:24.379Z,1015.33
2018-10-12T19:48:24.253Z,1015.33
2018-10-12T19:50:16.937Z,1015.31
2018-10-12T19:51:16.834Z,1015.33
2018-10-12T19:53:09.531Z,1015.32
2018-10-12T19:54:09.413Z,1015.31
2018-10-12T19:56:02.100Z,1015.31
2018-10-12T19:57:02.001Z,1015.36
2018-10-12T19:58:54.712Z,1015.36
2018-10-12T19:59:54.569Z,1015.37
2018-10-12T20:01:47.322Z,1015.39
2018-10-12T20:02:47.158Z,1015.38
2018-10-12T20:04:39.867Z,1015.42
2018-10-12T20:05:39.742Z,1015.40
2018-10-12T20:07:32.429Z,1015.41
2018-10-12T20:08:32.317Z,1015.39
2018-10-12T20:10:25.083Z,1015.34
2018-10-12T20:11:24.941Z,1015.37
2018-10-12T20:13:17.608Z,1015.36
2018-10-12T20:14:17.491Z,1015.37
2018-10-12T20:16:10.201Z,1015.36
2018-10-12T20:17:10.081Z,1015.38
2018-10-12T20:19:02.762Z,1015.36
2018-10-12T20:20:02.713Z,1015.36
2018-10-12T20:21:55.357Z,1015.36
2018-10-12T20:22:55.238Z,1015.42
2018-10-12T20:24:47.925Z,1015.48
2018-10-12T20:25:47.816Z,1015.45
2018-10-12T20:27:40.519Z,1015.42
2018-10-12T20:28:40.424Z,1015.51
2018-10-12T20:30:33.085Z,1015.48
2018-10-12T20:31:33.050Z,1015.51
2018-10-12T20:33:25.698Z,1015.55
2018-10-12T20:34:25.572Z,1015.52
2018-10-12T20:36:18.256Z,1015.53
2018-10-12T20:37:18.183Z,1015.52
2018-10-12T20:39:10.919Z,1015.56
2018-10-12T20:40:10.722Z,1015.54
2018-10-12T20:42:03.408Z,1015.53
2018-10-12T20:43:03.342Z,1015.51
2018-10-12T20:44:56.015Z,1015.52
2018-10-12T20:45:55.898Z,1015.53
2018-10-12T20:47:48.585Z,1015.52
2018-10-12T20:48:48.480Z,1015.57
2018-10-12T20:50:41.275Z,1015.58
2018-10-12T20:51:41.057Z,1015.55
2018-10-12T20:53:33.784Z,1015.58
2018-10-12T20:54:33.635Z,1015.60
2018-10-12T20:56:26.332Z,1015.59
2018-10-12T20:57:26.206Z,1015.59
2018-10-12T20:59:18.949Z,1015.60
2018-10-12T21:00:18.843Z,1015.63
2018-10-12T21:02:11.530Z,1015.63
2018-10-12T21:03:11.399Z,1015.60
2018-10-12T21:05:04.086Z,1015.62
2018-10-12T21:06:03.984Z,1015.64
2018-10-12T21:07:56.688Z,1015.73
2018-10-12T21:08:56.559Z,1015.67
2018-10-12T21:10:49.242Z,1015.66
2018-10-12T21:11:49.128Z,1015.64
2018-10-12T21:13:41.825Z,1015.66
2018-10-12T21:14:41.709Z,1015.68
2018-10-12T21:16:34.390Z,1015.70
2018-10-12T21:17:34.286Z,1015.73
2018-10-12T21:19:26.992Z,1015.74
2018-10-12T21:20:26.855Z,1015.74
2018-10-12T21:22:19.567Z,1015.73
2018-10-12T21:23:19.457Z,1015.74
2018-10-12T21:25:12.165Z,1015.70